Weerspreuk van de dag: Is het weer in Mei te mooi, dan krijgt de schuur maar weinig hooi.
Het weer levert geen direct gevaar op.    Er zijn geen waarschuwingen afgegeven.


Onweer radar Meer informatie blitzortung!


Regen radar Meer informatie rain snow radar


Bekijk deze sites ook eens:

FPL Automotive (TIP)

Autostekkers.nl (TIP)

Over Luyksgestel

De Kempen, mijn omgeving

BOL.com

Weerstation Noordbergum

Inktweb

Weerstation Hapert

Weerstation Hoogeloon

Weerstation Son&Breugel

Weerstation Castaert

Smartphonehoesjes

Weerstation Tilburg Reeshof

Weerstation Scheulder

Weerverwachting Samos

Samos actueel

Weerwoord (forum)

Griekenlandforum

Vakantie naar Samos

Zomerzon

Canon

Beleef de lente

Wolven in Nederland



METAR rapporten vliegvelden

   
EBAW - Antwerp
Gewijzigd: 20-05-2019 08:50
Grotendeels bewolkt  
Grotendeels bewolkt  
   Wind: NNW 13 km/h
Wind: NNW 13 km/h
Temperatuur: 13°C
Dauwpunt: 11°C
Vochtigheid: 88%
Barometer: 1008 hPa
Bewolking: Grotendeels bewolkt
Zicht: 6 km
Bewolking: Gedeeltelijk bewolkt 700 ft,
Grotendeels bewolkt 900 ft
EBAW 200650Z 33007KT 6000 SCT007 BKN009 13/11 Q1008 NOSIG
EBLG - Liège
Gewijzigd: 20-05-2019 08:50
Lichte (mot)regen, Nevel, Grotendeels bewolkt  
Lichte (mot)regen, Nevel, Grotendeels bewolkt  
   Wind: NW 11.1 km/h
Wind: NW 11.1 km/h
Temperatuur: 11°C
Dauwpunt: 11°C
Vochtigheid: 100%
Barometer: 1008 hPa
Bewolking: Grotendeels bewolkt
Zicht: 2 km
Bewolking: Grotendeels bewolkt 100 ft,
Grotendeels bewolkt 300 ft
EBLG 200650Z 31006KT 280V340 1500 -DZ BR BKN001 BKN003 11/11 Q1008 TEMPO 0500 FG
EBCV - Mons/Bergen
Gewijzigd: 20-05-2019 08:55
Wat regen mogelijk, Bewolking  
Wat regen mogelijk, Bewolking  
   Wind: NW 11.1 km/h
Wind: NW 11.1 km/h
Temperatuur: 11°C
Dauwpunt: 11°C
Vochtigheid: 100%
Barometer: 1010 hPa
Bewolking: Bewolking
Zicht: 2 km
Bewolking: Bewolking 400 ft
EBCV 200655Z AUTO 32006KT 2300 -RA OVC004/// 11/11 Q1010 YLO
EHBK - Maastricht
Gewijzigd: 20-05-2019 08:55
Nevel, Bewolking  
Nevel, Bewolking  
   Wind: WNW 9.3 km/h
Wind: WNW 9.3 km/h
Temperatuur: 12°C
Dauwpunt: 11°C
Vochtigheid: 94%
Barometer: 1007 hPa
Bewolking: Bewolking
Zicht: 5 km
Bewolking: Gedeeltelijk bewolkt 700 ft,
Grotendeels bewolkt 900 ft,
Bewolking 1000 ft
EHBK 200655Z AUTO 29005KT 240V330 4700 BR SCT007 BKN009 OVC010 12/11 Q1007 NOSIG
ELLX - Luxemburg
Gewijzigd: 20-05-2019 08:50
Grotendeels bewolkt  
Grotendeels bewolkt  
   Wind: Noorden 16.7 km/h
Wind: Noorden 16.7 km/h
Temperatuur: 13°C
Dauwpunt: 10°C
Vochtigheid: 82%
Barometer: 1007 hPa
Bewolking: Grotendeels bewolkt
Zicht: 6 km
Bewolking: Grotendeels bewolkt 1000 ft
ELLX 200650Z 36009KT 320V020 6000 BKN010 13/10 Q1007 NOSIG
EBOS - Oostende
Gewijzigd: 20-05-2019 08:50
Grotendeels bewolkt  
Grotendeels bewolkt  
   Wind: NNW 18.5 km/h
Wind: NNW 18.5 km/h
Temperatuur: 10°C
Voelt als: 8°C
Dauwpunt: 9°C
Vochtigheid: 94%
Barometer: 1010 hPa
Bewolking: Grotendeels bewolkt
Zicht: 8 km
Bewolking: Grotendeels bewolkt 600 ft
EBOS 200650Z 34010KT 8000 BKN006 10/09 Q1010 NOSIG

Script ontwikkeld door  Saratoga-weather.org Aangepast voor de template door  Weerstation Leuven

U vindt ons ook hier:

Het Weer Aktueel

UK Metoffice

European Weather Network

Weather Underground

AWEKAS



Lekker winkelen zonder zorgen - Gratis verzending en retour